sensor_id;sensor_type;location;lat;lon;timestamp;temperature;humidity
51500;DHT22;39101;53.478;6.158;2022-07-06T00:00:33;14.80;99.90
51500;DHT22;39101;53.478;6.158;2022-07-06T00:02:59;14.80;99.90
51500;DHT22;39101;53.478;6.158;2022-07-06T00:05:25;14.90;99.90
51500;DHT22;39101;53.478;6.158;2022-07-06T00:07:50;14.90;99.90
51500;DHT22;39101;53.478;6.158;2022-07-06T00:10:16;14.90;99.90
51500;DHT22;39101;53.478;6.158;2022-07-06T00:12:42;14.90;99.90
51500;DHT22;39101;53.478;6.158;2022-07-06T00:15:08;14.90;99.90
51500;DHT22;39101;53.478;6.158;2022-07-06T00:17:34;14.90;99.90
51500;DHT22;39101;53.478;6.158;2022-07-06T00:19:59;14.90;99.90
51500;DHT22;39101;53.478;6.158;2022-07-06T00:22:25;14.90;99.90
51500;DHT22;39101;53.478;6.158;2022-07-06T00:24:51;14.90;99.90
51500;DHT22;39101;53.478;6.158;2022-07-06T00:27:17;14.90;99.90
51500;DHT22;39101;53.478;6.158;2022-07-06T00:29:42;14.90;99.90
51500;DHT22;39101;53.478;6.158;2022-07-06T00:32:11;14.90;99.90
51500;DHT22;39101;53.478;6.158;2022-07-06T00:34:37;14.90;99.90
51500;DHT22;39101;53.478;6.158;2022-07-06T00:37:05;14.80;99.90
51500;DHT22;39101;53.478;6.158;2022-07-06T00:39:32;14.80;99.90
51500;DHT22;39101;53.478;6.158;2022-07-06T00:41:58;14.80;99.90
51500;DHT22;39101;53.478;6.158;2022-07-06T00:44:23;14.90;99.90
51500;DHT22;39101;53.478;6.158;2022-07-06T00:46:49;14.90;99.90
51500;DHT22;39101;53.478;6.158;2022-07-06T00:49:15;14.80;99.90
51500;DHT22;39101;53.478;6.158;2022-07-06T00:51:59;14.80;99.90
51500;DHT22;39101;53.478;6.158;2022-07-06T00:54:27;14.90;99.90
51500;DHT22;39101;53.478;6.158;2022-07-06T00:56:55;14.90;99.90
51500;DHT22;39101;53.478;6.158;2022-07-06T00:59:21;14.80;99.90
51500;DHT22;39101;53.478;6.158;2022-07-06T01:01:47;14.80;99.90
51500;DHT22;39101;53.478;6.158;2022-07-06T01:04:13;14.70;99.90
51500;DHT22;39101;53.478;6.158;2022-07-06T01:06:39;14.70;99.90
51500;DHT22;39101;53.478;6.158;2022-07-06T01:09:05;14.60;99.90
51500;DHT22;39101;53.478;6.158;2022-07-06T01:11:30;14.50;99.90
51500;DHT22;39101;53.478;6.158;2022-07-06T01:13:56;14.50;99.90
51500;DHT22;39101;53.478;6.158;2022-07-06T01:16:23;14.50;99.90
51500;DHT22;39101;53.478;6.158;2022-07-06T01:18:48;14.50;99.90
51500;DHT22;39101;53.478;6.158;2022-07-06T01:21:15;14.40;99.90
51500;DHT22;39101;53.478;6.158;2022-07-06T01:23:42;14.40;99.90
51500;DHT22;39101;53.478;6.158;2022-07-06T01:26:10;14.30;99.90
51500;DHT22;39101;53.478;6.158;2022-07-06T01:28:36;14.30;99.90
51500;DHT22;39101;53.478;6.158;2022-07-06T01:31:02;14.30;99.90
51500;DHT22;39101;53.478;6.158;2022-07-06T01:33:27;14.30;99.90
51500;DHT22;39101;53.478;6.158;2022-07-06T01:35:53;14.30;99.90
51500;DHT22;39101;53.478;6.158;2022-07-06T01:38:19;14.30;99.90
51500;DHT22;39101;53.478;6.158;2022-07-06T01:40:44;14.30;99.90
51500;DHT22;39101;53.478;6.158;2022-07-06T01:43:10;14.30;99.90
51500;DHT22;39101;53.478;6.158;2022-07-06T01:45:36;14.30;99.90
51500;DHT22;39101;53.478;6.158;2022-07-06T01:48:05;14.30;99.90
51500;DHT22;39101;53.478;6.158;2022-07-06T01:50:31;14.30;99.90
51500;DHT22;39101;53.478;6.158;2022-07-06T01:52:59;14.30;99.90
51500;DHT22;39101;53.478;6.158;2022-07-06T01:55:25;14.30;99.90
51500;DHT22;39101;53.478;6.158;2022-07-06T01:57:51;14.30;99.90
51500;DHT22;39101;53.478;6.158;2022-07-06T02:00:16;14.20;99.90
51500;DHT22;39101;53.478;6.158;2022-07-06T02:02:42;14.20;99.90
51500;DHT22;39101;53.478;6.158;2022-07-06T02:05:08;14.20;99.90
51500;DHT22;39101;53.478;6.158;2022-07-06T02:07:33;14.20;99.90
51500;DHT22;39101;53.478;6.158;2022-07-06T02:09:59;14.20;99.90
51500;DHT22;39101;53.478;6.158;2022-07-06T02:12:25;14.20;99.90
51500;DHT22;39101;53.478;6.158;2022-07-06T02:14:50;14.20;99.90
51500;DHT22;39101;53.478;6.158;2022-07-06T02:17:16;14.20;99.90
51500;DHT22;39101;53.478;6.158;2022-07-06T02:19:42;14.20;99.90
51500;DHT22;39101;53.478;6.158;2022-07-06T02:22:08;14.20;99.90
51500;DHT22;39101;53.478;6.158;2022-07-06T02:24:33;14.20;99.90
51500;DHT22;39101;53.478;6.158;2022-07-06T02:26:59;14.20;99.90
51500;DHT22;39101;53.478;6.158;2022-07-06T02:29:25;14.20;99.90
51500;DHT22;39101;53.478;6.158;2022-07-06T02:31:51;14.20;99.90
51500;DHT22;39101;53.478;6.158;2022-07-06T02:34:17;14.20;99.90
51500;DHT22;39101;53.478;6.158;2022-07-06T02:36:42;14.20;99.90
51500;DHT22;39101;53.478;6.158;2022-07-06T02:39:08;14.30;99.90
51500;DHT22;39101;53.478;6.158;2022-07-06T02:41:34;14.30;99.90
51500;DHT22;39101;53.478;6.158;2022-07-06T02:43:59;14.20;99.90
51500;DHT22;39101;53.478;6.158;2022-07-06T02:46:25;14.20;99.90
51500;DHT22;39101;53.478;6.158;2022-07-06T02:48:50;14.20;99.90
51500;DHT22;39101;53.478;6.158;2022-07-06T02:51:16;14.20;99.90
51500;DHT22;39101;53.478;6.158;2022-07-06T02:53:42;14.20;99.90
51500;DHT22;39101;53.478;6.158;2022-07-06T02:56:08;14.20;99.90
51500;DHT22;39101;53.478;6.158;2022-07-06T02:58:33;14.20;99.90
51500;DHT22;39101;53.478;6.158;2022-07-06T03:00:59;14.20;99.90
51500;DHT22;39101;53.478;6.158;2022-07-06T03:03:25;14.20;99.90
51500;DHT22;39101;53.478;6.158;2022-07-06T03:05:51;14.30;99.90
51500;DHT22;39101;53.478;6.158;2022-07-06T03:08:17;14.30;99.90
51500;DHT22;39101;53.478;6.158;2022-07-06T03:10:42;14.20;99.90
51500;DHT22;39101;53.478;6.158;2022-07-06T03:13:08;14.10;99.90
51500;DHT22;39101;53.478;6.158;2022-07-06T03:15:34;14.20;99.90
51500;DHT22;39101;53.478;6.158;2022-07-06T03:17:59;14.20;99.90
51500;DHT22;39101;53.478;6.158;2022-07-06T03:20:25;14.20;99.90
51500;DHT22;39101;53.478;6.158;2022-07-06T03:22:50;14.10;99.90
51500;DHT22;39101;53.478;6.158;2022-07-06T03:25:16;14.20;99.90
51500;DHT22;39101;53.478;6.158;2022-07-06T03:27:42;14.20;99.90
51500;DHT22;39101;53.478;6.158;2022-07-06T03:30:08;14.30;99.90
51500;DHT22;39101;53.478;6.158;2022-07-06T03:32:33;14.30;99.90
51500;DHT22;39101;53.478;6.158;2022-07-06T03:34:59;14.30;99.90
51500;DHT22;39101;53.478;6.158;2022-07-06T03:37:25;14.20;99.90
51500;DHT22;39101;53.478;6.158;2022-07-06T03:39:50;14.20;99.90
51500;DHT22;39101;53.478;6.158;2022-07-06T03:42:16;14.10;99.90
51500;DHT22;39101;53.478;6.158;2022-07-06T03:44:42;14.10;99.90
51500;DHT22;39101;53.478;6.158;2022-07-06T03:47:07;14.10;99.90
51500;DHT22;39101;53.478;6.158;2022-07-06T03:49:33;14.00;99.90
51500;DHT22;39101;53.478;6.158;2022-07-06T03:51:59;14.00;99.90
51500;DHT22;39101;53.478;6.158;2022-07-06T03:54:24;14.00;99.90
51500;DHT22;39101;53.478;6.158;2022-07-06T03:56:50;14.00;99.90
51500;DHT22;39101;53.478;6.158;2022-07-06T03:59:15;13.90;99.90
51500;DHT22;39101;53.478;6.158;2022-07-06T04:01:41;13.90;99.90
51500;DHT22;39101;53.478;6.158;2022-07-06T04:04:07;14.00;99.90
51500;DHT22;39101;53.478;6.158;2022-07-06T04:06:33;14.00;99.90
51500;DHT22;39101;53.478;6.158;2022-07-06T04:09:00;14.00;99.90
51500;DHT22;39101;53.478;6.158;2022-07-06T04:11:26;14.00;99.90
51500;DHT22;39101;53.478;6.158;2022-07-06T04:13:51;14.00;99.90
51500;DHT22;39101;53.478;6.158;2022-07-06T04:16:17;14.10;99.90
51500;DHT22;39101;53.478;6.158;2022-07-06T04:18:42;14.10;99.90
51500;DHT22;39101;53.478;6.158;2022-07-06T04:21:08;14.20;99.90
51500;DHT22;39101;53.478;6.158;2022-07-06T04:23:34;14.10;99.90
51500;DHT22;39101;53.478;6.158;2022-07-06T04:25:59;14.20;99.90
51500;DHT22;39101;53.478;6.158;2022-07-06T04:28:25;14.30;99.90
51500;DHT22;39101;53.478;6.158;2022-07-06T04:30:51;14.30;99.90
51500;DHT22;39101;53.478;6.158;2022-07-06T04:33:17;14.40;99.90
51500;DHT22;39101;53.478;6.158;2022-07-06T04:35:42;14.30;99.90
51500;DHT22;39101;53.478;6.158;2022-07-06T04:38:08;14.30;99.90
51500;DHT22;39101;53.478;6.158;2022-07-06T04:40:34;14.40;99.90
51500;DHT22;39101;53.478;6.158;2022-07-06T04:42:59;14.30;99.90
51500;DHT22;39101;53.478;6.158;2022-07-06T04:45:25;14.40;99.90
51500;DHT22;39101;53.478;6.158;2022-07-06T04:47:51;14.40;99.90
51500;DHT22;39101;53.478;6.158;2022-07-06T04:50:17;14.40;99.90
51500;DHT22;39101;53.478;6.158;2022-07-06T04:52:43;14.40;99.90
51500;DHT22;39101;53.478;6.158;2022-07-06T04:55:08;14.60;99.90
51500;DHT22;39101;53.478;6.158;2022-07-06T04:57:35;14.60;99.90
51500;DHT22;39101;53.478;6.158;2022-07-06T05:00:03;14.80;99.90
51500;DHT22;39101;53.478;6.158;2022-07-06T05:02:29;14.90;99.90
51500;DHT22;39101;53.478;6.158;2022-07-06T05:04:54;15.00;99.90
51500;DHT22;39101;53.478;6.158;2022-07-06T05:07:20;15.00;99.90
51500;DHT22;39101;53.478;6.158;2022-07-06T05:09:46;14.90;99.90
51500;DHT22;39101;53.478;6.158;2022-07-06T05:12:11;14.80;99.90
51500;DHT22;39101;53.478;6.158;2022-07-06T05:14:37;14.80;99.90
51500;DHT22;39101;53.478;6.158;2022-07-06T05:17:03;14.80;99.90
51500;DHT22;39101;53.478;6.158;2022-07-06T05:19:28;14.80;99.90
51500;DHT22;39101;53.478;6.158;2022-07-06T05:21:54;14.70;99.90
51500;DHT22;39101;53.478;6.158;2022-07-06T05:24:20;14.80;99.90
51500;DHT22;39101;53.478;6.158;2022-07-06T05:26:46;14.80;99.90
51500;DHT22;39101;53.478;6.158;2022-07-06T05:29:12;14.80;99.90
51500;DHT22;39101;53.478;6.158;2022-07-06T05:31:37;14.80;99.90
51500;DHT22;39101;53.478;6.158;2022-07-06T05:34:03;14.80;99.90
51500;DHT22;39101;53.478;6.158;2022-07-06T05:36:29;15.00;99.90
51500;DHT22;39101;53.478;6.158;2022-07-06T05:38:54;15.00;99.90
51500;DHT22;39101;53.478;6.158;2022-07-06T05:41:20;15.00;99.90
51500;DHT22;39101;53.478;6.158;2022-07-06T05:43:46;15.00;99.90
51500;DHT22;39101;53.478;6.158;2022-07-06T05:46:11;15.00;99.90
51500;DHT22;39101;53.478;6.158;2022-07-06T05:48:37;14.90;99.90
51500;DHT22;39101;53.478;6.158;2022-07-06T05:51:21;14.90;99.90
51500;DHT22;39101;53.478;6.158;2022-07-06T05:53:47;15.00;99.90
51500;DHT22;39101;53.478;6.158;2022-07-06T05:56:13;15.10;99.90
51500;DHT22;39101;53.478;6.158;2022-07-06T05:58:39;15.20;99.90
51500;DHT22;39101;53.478;6.158;2022-07-06T06:01:04;15.30;99.90
51500;DHT22;39101;53.478;6.158;2022-07-06T06:03:33;15.40;99.90
51500;DHT22;39101;53.478;6.158;2022-07-06T06:05:59;15.50;99.90
51500;DHT22;39101;53.478;6.158;2022-07-06T06:08:24;15.50;99.90
51500;DHT22;39101;53.478;6.158;2022-07-06T06:10:50;15.60;99.90
51500;DHT22;39101;53.478;6.158;2022-07-06T06:13:16;15.60;99.90
51500;DHT22;39101;53.478;6.158;2022-07-06T06:15:41;15.60;99.90
51500;DHT22;39101;53.478;6.158;2022-07-06T06:18:07;15.70;99.90
51500;DHT22;39101;53.478;6.158;2022-07-06T06:20:33;15.70;99.90
51500;DHT22;39101;53.478;6.158;2022-07-06T06:22:59;15.70;99.90
51500;DHT22;39101;53.478;6.158;2022-07-06T06:25:28;15.70;99.90
51500;DHT22;39101;53.478;6.158;2022-07-06T06:27:54;15.70;99.90
51500;DHT22;39101;53.478;6.158;2022-07-06T06:30:20;15.70;99.90
51500;DHT22;39101;53.478;6.158;2022-07-06T06:32:46;15.80;99.90
51500;DHT22;39101;53.478;6.158;2022-07-06T06:35:12;15.80;99.90
51500;DHT22;39101;53.478;6.158;2022-07-06T06:37:37;15.80;99.90
51500;DHT22;39101;53.478;6.158;2022-07-06T06:40:05;15.80;99.90
51500;DHT22;39101;53.478;6.158;2022-07-06T06:42:31;15.90;99.90
51500;DHT22;39101;53.478;6.158;2022-07-06T06:44:57;16.00;99.90
51500;DHT22;39101;53.478;6.158;2022-07-06T06:47:23;16.00;99.90
51500;DHT22;39101;53.478;6.158;2022-07-06T06:49:48;16.00;99.90
51500;DHT22;39101;53.478;6.158;2022-07-06T06:52:14;16.00;99.90
51500;DHT22;39101;53.478;6.158;2022-07-06T06:54:40;16.10;99.90
51500;DHT22;39101;53.478;6.158;2022-07-06T06:57:06;16.00;99.90
51500;DHT22;39101;53.478;6.158;2022-07-06T06:59:31;16.10;99.90
51500;DHT22;39101;53.478;6.158;2022-07-06T07:01:57;16.20;99.90
51500;DHT22;39101;53.478;6.158;2022-07-06T07:04:23;16.30;99.90
51500;DHT22;39101;53.478;6.158;2022-07-06T07:06:49;16.40;99.90
51500;DHT22;39101;53.478;6.158;2022-07-06T07:09:14;16.40;99.90
51500;DHT22;39101;53.478;6.158;2022-07-06T07:11:40;16.40;99.90
51500;DHT22;39101;53.478;6.158;2022-07-06T07:14:06;16.40;99.90
51500;DHT22;39101;53.478;6.158;2022-07-06T07:16:31;16.40;99.90
51500;DHT22;39101;53.478;6.158;2022-07-06T07:18:57;16.50;99.90
51500;DHT22;39101;53.478;6.158;2022-07-06T07:21:23;16.50;99.90
51500;DHT22;39101;53.478;6.158;2022-07-06T07:23:48;16.60;99.90
51500;DHT22;39101;53.478;6.158;2022-07-06T07:26:16;16.60;99.90
51500;DHT22;39101;53.478;6.158;2022-07-06T07:28:41;16.70;99.90
51500;DHT22;39101;53.478;6.158;2022-07-06T07:31:07;16.70;99.90
51500;DHT22;39101;53.478;6.158;2022-07-06T07:33:34;16.70;99.90
51500;DHT22;39101;53.478;6.158;2022-07-06T07:36:00;16.70;99.90
51500;DHT22;39101;53.478;6.158;2022-07-06T07:38:25;16.70;99.90
51500;DHT22;39101;53.478;6.158;2022-07-06T07:40:53;16.80;99.90
51500;DHT22;39101;53.478;6.158;2022-07-06T07:43:19;16.80;99.90
51500;DHT22;39101;53.478;6.158;2022-07-06T07:45:46;16.90;99.90
51500;DHT22;39101;53.478;6.158;2022-07-06T07:48:12;16.90;99.90
51500;DHT22;39101;53.478;6.158;2022-07-06T07:50:38;16.90;99.90
51500;DHT22;39101;53.478;6.158;2022-07-06T07:53:04;16.80;99.90
51500;DHT22;39101;53.478;6.158;2022-07-06T07:55:29;16.80;99.90
51500;DHT22;39101;53.478;6.158;2022-07-06T07:57:55;16.70;99.90
51500;DHT22;39101;53.478;6.158;2022-07-06T08:00:21;16.80;99.90
51500;DHT22;39101;53.478;6.158;2022-07-06T08:02:47;16.80;99.90
51500;DHT22;39101;53.478;6.158;2022-07-06T08:05:13;16.90;99.90
51500;DHT22;39101;53.478;6.158;2022-07-06T08:07:41;17.00;99.90
51500;DHT22;39101;53.478;6.158;2022-07-06T08:10:08;17.10;99.90
51500;DHT22;39101;53.478;6.158;2022-07-06T08:12:33;17.10;99.90
51500;DHT22;39101;53.478;6.158;2022-07-06T08:14:59;17.10;99.90
51500;DHT22;39101;53.478;6.158;2022-07-06T08:17:25;17.10;99.90
51500;DHT22;39101;53.478;6.158;2022-07-06T08:19:50;17.20;99.90
51500;DHT22;39101;53.478;6.158;2022-07-06T08:22:16;17.10;99.90
51500;DHT22;39101;53.478;6.158;2022-07-06T08:24:42;17.00;99.90
51500;DHT22;39101;53.478;6.158;2022-07-06T08:27:07;16.90;99.90
51500;DHT22;39101;53.478;6.158;2022-07-06T08:29:33;16.80;99.90
51500;DHT22;39101;53.478;6.158;2022-07-06T08:31:59;17.20;99.90
51500;DHT22;39101;53.478;6.158;2022-07-06T08:34:25;16.90;99.90
51500;DHT22;39101;53.478;6.158;2022-07-06T08:36:50;16.90;99.90
51500;DHT22;39101;53.478;6.158;2022-07-06T08:39:16;16.80;99.90
51500;DHT22;39101;53.478;6.158;2022-07-06T08:41:43;16.70;99.90
51500;DHT22;39101;53.478;6.158;2022-07-06T08:44:14;16.70;99.90
51500;DHT22;39101;53.478;6.158;2022-07-06T08:46:40;16.60;99.90
51500;DHT22;39101;53.478;6.158;2022-07-06T08:49:07;16.60;99.90
51500;DHT22;39101;53.478;6.158;2022-07-06T08:51:35;16.80;99.90
51500;DHT22;39101;53.478;6.158;2022-07-06T08:54:02;16.90;99.90
51500;DHT22;39101;53.478;6.158;2022-07-06T08:56:29;16.90;99.90
51500;DHT22;39101;53.478;6.158;2022-07-06T08:58:55;17.00;99.90
51500;DHT22;39101;53.478;6.158;2022-07-06T09:01:21;17.20;99.90
51500;DHT22;39101;53.478;6.158;2022-07-06T09:03:49;17.10;99.90
51500;DHT22;39101;53.478;6.158;2022-07-06T09:06:24;17.00;99.90
51500;DHT22;39101;53.478;6.158;2022-07-06T09:08:53;17.00;99.90
51500;DHT22;39101;53.478;6.158;2022-07-06T09:11:21;17.00;99.90
51500;DHT22;39101;53.478;6.158;2022-07-06T09:13:47;17.10;99.90
51500;DHT22;39101;53.478;6.158;2022-07-06T09:16:15;17.20;99.90
51500;DHT22;39101;53.478;6.158;2022-07-06T09:18:44;17.30;99.90
51500;DHT22;39101;53.478;6.158;2022-07-06T09:21:10;17.30;99.90
51500;DHT22;39101;53.478;6.158;2022-07-06T09:23:37;17.40;99.90
51500;DHT22;39101;53.478;6.158;2022-07-06T09:26:05;17.40;99.90
51500;DHT22;39101;53.478;6.158;2022-07-06T09:28:44;17.40;99.90
51500;DHT22;39101;53.478;6.158;2022-07-06T09:31:10;17.40;99.90
51500;DHT22;39101;53.478;6.158;2022-07-06T09:33:37;17.30;99.90
51500;DHT22;39101;53.478;6.158;2022-07-06T09:36:04;17.20;99.90
51500;DHT22;39101;53.478;6.158;2022-07-06T09:38:31;17.20;99.90
51500;DHT22;39101;53.478;6.158;2022-07-06T09:40:57;17.20;99.90
51500;DHT22;39101;53.478;6.158;2022-07-06T09:43:24;17.20;99.90
51500;DHT22;39101;53.478;6.158;2022-07-06T09:45:53;17.30;99.90
51500;DHT22;39101;53.478;6.158;2022-07-06T09:48:21;17.30;99.90
51500;DHT22;39101;53.478;6.158;2022-07-06T09:53:17;17.30;99.90
51500;DHT22;39101;53.478;6.158;2022-07-06T09:55:44;17.40;99.90
51500;DHT22;39101;53.478;6.158;2022-07-06T09:58:10;17.50;99.90
51500;DHT22;39101;53.478;6.158;2022-07-06T10:00:36;17.50;99.90
51500;DHT22;39101;53.478;6.158;2022-07-06T10:03:01;17.40;99.90
51500;DHT22;39101;53.478;6.158;2022-07-06T10:05:28;17.40;99.90
51500;DHT22;39101;53.478;6.158;2022-07-06T10:07:59;17.50;99.90
51500;DHT22;39101;53.478;6.158;2022-07-06T10:10:26;17.50;99.90
51500;DHT22;39101;53.478;6.158;2022-07-06T10:12:55;17.60;99.90
51500;DHT22;39101;53.478;6.158;2022-07-06T10:15:22;17.60;99.90
51500;DHT22;39101;53.478;6.158;2022-07-06T10:17:49;17.60;99.90
51500;DHT22;39101;53.478;6.158;2022-07-06T10:20:18;17.60;99.90
51500;DHT22;39101;53.478;6.158;2022-07-06T10:22:44;17.60;99.90
51500;DHT22;39101;53.478;6.158;2022-07-06T10:25:11;17.70;99.90
51500;DHT22;39101;53.478;6.158;2022-07-06T10:27:37;17.80;99.90
51500;DHT22;39101;53.478;6.158;2022-07-06T10:30:05;17.80;99.90
51500;DHT22;39101;53.478;6.158;2022-07-06T10:32:30;17.80;99.90
51500;DHT22;39101;53.478;6.158;2022-07-06T10:34:56;17.80;99.90
51500;DHT22;39101;53.478;6.158;2022-07-06T10:37:27;17.90;99.90
51500;DHT22;39101;53.478;6.158;2022-07-06T10:39:53;17.80;99.90
51500;DHT22;39101;53.478;6.158;2022-07-06T10:42:41;17.90;99.90
51500;DHT22;39101;53.478;6.158;2022-07-06T10:45:08;17.90;99.90
51500;DHT22;39101;53.478;6.158;2022-07-06T10:47:34;17.90;99.90
51500;DHT22;39101;53.478;6.158;2022-07-06T10:50:00;17.90;99.90
51500;DHT22;39101;53.478;6.158;2022-07-06T10:52:53;17.90;99.90
51500;DHT22;39101;53.478;6.158;2022-07-06T10:57:55;18.00;99.90
51500;DHT22;39101;53.478;6.158;2022-07-06T11:00:21;18.00;99.90
51500;DHT22;39101;53.478;6.158;2022-07-06T11:02:47;17.90;99.90
51500;DHT22;39101;53.478;6.158;2022-07-06T11:05:41;18.00;99.90
51500;DHT22;39101;53.478;6.158;2022-07-06T11:08:10;18.00;99.90
51500;DHT22;39101;53.478;6.158;2022-07-06T11:10:49;18.10;99.90
51500;DHT22;39101;53.478;6.158;2022-07-06T11:13:27;18.10;99.90
51500;DHT22;39101;53.478;6.158;2022-07-06T11:16:01;18.20;99.90
51500;DHT22;39101;53.478;6.158;2022-07-06T11:18:28;18.20;99.90
51500;DHT22;39101;53.478;6.158;2022-07-06T11:21:19;18.20;99.90
51500;DHT22;39101;53.478;6.158;2022-07-06T11:23:47;18.10;99.90
51500;DHT22;39101;53.478;6.158;2022-07-06T11:26:14;18.00;99.90
51500;DHT22;39101;53.478;6.158;2022-07-06T11:28:40;18.00;99.90
51500;DHT22;39101;53.478;6.158;2022-07-06T11:31:05;18.00;99.90
51500;DHT22;39101;53.478;6.158;2022-07-06T11:33:32;18.00;99.90
51500;DHT22;39101;53.478;6.158;2022-07-06T11:36:19;18.10;99.90
51500;DHT22;39101;53.478;6.158;2022-07-06T11:38:47;18.10;99.90
51500;DHT22;39101;53.478;6.158;2022-07-06T11:41:13;18.20;99.90
51500;DHT22;39101;53.478;6.158;2022-07-06T11:43:41;18.30;99.90
51500;DHT22;39101;53.478;6.158;2022-07-06T11:46:21;18.30;99.90
51500;DHT22;39101;53.478;6.158;2022-07-06T11:48:48;18.30;99.90
51500;DHT22;39101;53.478;6.158;2022-07-06T11:51:15;18.30;99.90
51500;DHT22;39101;53.478;6.158;2022-07-06T11:53:49;18.30;99.90
51500;DHT22;39101;53.478;6.158;2022-07-06T11:56:15;18.30;99.90
51500;DHT22;39101;53.478;6.158;2022-07-06T11:58:45;18.30;99.90
51500;DHT22;39101;53.478;6.158;2022-07-06T12:01:13;18.20;99.90
51500;DHT22;39101;53.478;6.158;2022-07-06T12:03:39;18.10;99.90
51500;DHT22;39101;53.478;6.158;2022-07-06T12:06:09;18.10;99.90
51500;DHT22;39101;53.478;6.158;2022-07-06T12:08:45;18.10;99.90
51500;DHT22;39101;53.478;6.158;2022-07-06T12:11:26;18.10;99.90
51500;DHT22;39101;53.478;6.158;2022-07-06T12:13:54;18.10;99.90
51500;DHT22;39101;53.478;6.158;2022-07-06T12:16:20;18.20;99.90
51500;DHT22;39101;53.478;6.158;2022-07-06T12:18:49;18.20;99.90
51500;DHT22;39101;53.478;6.158;2022-07-06T12:21:18;18.20;99.90
51500;DHT22;39101;53.478;6.158;2022-07-06T12:23:49;18.20;99.90
51500;DHT22;39101;53.478;6.158;2022-07-06T12:26:20;18.10;99.90
51500;DHT22;39101;53.478;6.158;2022-07-06T12:29:06;18.10;99.90
51500;DHT22;39101;53.478;6.158;2022-07-06T12:31:38;18.10;99.90
51500;DHT22;39101;53.478;6.158;2022-07-06T12:34:05;18.00;99.90
51500;DHT22;39101;53.478;6.158;2022-07-06T12:39:14;18.00;99.90
51500;DHT22;39101;53.478;6.158;2022-07-06T12:42:01;18.00;99.90
51500;DHT22;39101;53.478;6.158;2022-07-06T12:44:28;18.00;99.90
51500;DHT22;39101;53.478;6.158;2022-07-06T12:47:05;18.00;99.90
51500;DHT22;39101;53.478;6.158;2022-07-06T12:49:32;17.90;99.90
51500;DHT22;39101;53.478;6.158;2022-07-06T12:59:55;17.90;99.90
51500;DHT22;39101;53.478;6.158;2022-07-06T13:02:32;17.90;99.90
51500;DHT22;39101;53.478;6.158;2022-07-06T13:07:31;17.90;99.90
51500;DHT22;39101;53.478;6.158;2022-07-06T13:09:58;17.80;99.90
51500;DHT22;39101;53.478;6.158;2022-07-06T13:12:24;17.90;99.90
51500;DHT22;39101;53.478;6.158;2022-07-06T13:14:50;17.80;99.90
51500;DHT22;39101;53.478;6.158;2022-07-06T13:17:17;17.80;99.90
51500;DHT22;39101;53.478;6.158;2022-07-06T13:19:46;17.70;99.90
51500;DHT22;39101;53.478;6.158;2022-07-06T13:22:12;17.70;99.90
51500;DHT22;39101;53.478;6.158;2022-07-06T13:24:38;17.70;99.90
51500;DHT22;39101;53.478;6.158;2022-07-06T13:27:04;17.60;99.90
51500;DHT22;39101;53.478;6.158;2022-07-06T13:29:30;17.60;99.90
51500;DHT22;39101;53.478;6.158;2022-07-06T13:31:55;17.50;99.90
51500;DHT22;39101;53.478;6.158;2022-07-06T13:34:21;17.50;99.90
51500;DHT22;39101;53.478;6.158;2022-07-06T13:36:47;17.60;99.90
51500;DHT22;39101;53.478;6.158;2022-07-06T13:39:12;17.60;99.90
51500;DHT22;39101;53.478;6.158;2022-07-06T13:41:38;17.60;99.90
51500;DHT22;39101;53.478;6.158;2022-07-06T13:44:04;17.70;99.90
51500;DHT22;39101;53.478;6.158;2022-07-06T13:46:31;17.60;99.90
51500;DHT22;39101;53.478;6.158;2022-07-06T13:48:57;17.60;99.90
51500;DHT22;39101;53.478;6.158;2022-07-06T13:51:24;17.50;99.90
51500;DHT22;39101;53.478;6.158;2022-07-06T13:53:52;17.40;99.90
51500;DHT22;39101;53.478;6.158;2022-07-06T13:56:18;17.40;99.90
51500;DHT22;39101;53.478;6.158;2022-07-06T13:58:43;17.40;99.90
51500;DHT22;39101;53.478;6.158;2022-07-06T14:01:09;17.30;99.90
51500;DHT22;39101;53.478;6.158;2022-07-06T14:03:35;17.30;99.90
51500;DHT22;39101;53.478;6.158;2022-07-06T14:06:04;17.20;99.90
51500;DHT22;39101;53.478;6.158;2022-07-06T14:08:32;17.00;99.90
51500;DHT22;39101;53.478;6.158;2022-07-06T14:10:58;16.90;99.90
51500;DHT22;39101;53.478;6.158;2022-07-06T14:13:23;16.70;99.90
51500;DHT22;39101;53.478;6.158;2022-07-06T14:15:49;16.60;99.90
51500;DHT22;39101;53.478;6.158;2022-07-06T14:18:15;16.60;99.90
51500;DHT22;39101;53.478;6.158;2022-07-06T14:20:46;16.60;99.90
51500;DHT22;39101;53.478;6.158;2022-07-06T14:23:13;16.50;99.90
51500;DHT22;39101;53.478;6.158;2022-07-06T14:25:40;16.40;99.90
51500;DHT22;39101;53.478;6.158;2022-07-06T14:28:06;16.30;99.90
51500;DHT22;39101;53.478;6.158;2022-07-06T14:30:33;16.20;99.90
51500;DHT22;39101;53.478;6.158;2022-07-06T14:33:00;16.20;99.90
51500;DHT22;39101;53.478;6.158;2022-07-06T14:35:27;16.00;99.90
51500;DHT22;39101;53.478;6.158;2022-07-06T14:37:52;16.00;99.90
51500;DHT22;39101;53.478;6.158;2022-07-06T14:40:18;16.00;99.90
51500;DHT22;39101;53.478;6.158;2022-07-06T14:42:44;15.90;99.90
51500;DHT22;39101;53.478;6.158;2022-07-06T14:45:10;15.80;99.90
51500;DHT22;39101;53.478;6.158;2022-07-06T14:47:37;15.90;99.90
51500;DHT22;39101;53.478;6.158;2022-07-06T14:50:03;15.80;99.90
51500;DHT22;39101;53.478;6.158;2022-07-06T14:52:29;15.80;99.90
51500;DHT22;39101;53.478;6.158;2022-07-06T14:54:54;15.80;99.90
51500;DHT22;39101;53.478;6.158;2022-07-06T14:57:20;15.60;99.90
51500;DHT22;39101;53.478;6.158;2022-07-06T14:59:46;15.70;99.90
51500;DHT22;39101;53.478;6.158;2022-07-06T15:02:11;15.60;99.90
51500;DHT22;39101;53.478;6.158;2022-07-06T15:04:37;15.50;99.90
51500;DHT22;39101;53.478;6.158;2022-07-06T15:07:03;15.60;99.90
51500;DHT22;39101;53.478;6.158;2022-07-06T15:09:28;15.50;99.90
51500;DHT22;39101;53.478;6.158;2022-07-06T15:11:56;15.60;99.90
51500;DHT22;39101;53.478;6.158;2022-07-06T15:14:22;15.60;99.90
51500;DHT22;39101;53.478;6.158;2022-07-06T15:16:48;15.40;99.90
51500;DHT22;39101;53.478;6.158;2022-07-06T15:19:14;15.50;99.90
51500;DHT22;39101;53.478;6.158;2022-07-06T15:21:41;15.60;99.90
51500;DHT22;39101;53.478;6.158;2022-07-06T15:24:06;15.50;99.90
51500;DHT22;39101;53.478;6.158;2022-07-06T15:26:32;15.60;99.90
51500;DHT22;39101;53.478;6.158;2022-07-06T15:28:58;15.60;99.90
51500;DHT22;39101;53.478;6.158;2022-07-06T15:31:24;15.60;99.90
51500;DHT22;39101;53.478;6.158;2022-07-06T15:33:49;15.30;99.90
51500;DHT22;39101;53.478;6.158;2022-07-06T15:36:15;15.40;99.90
51500;DHT22;39101;53.478;6.158;2022-07-06T15:38:41;15.30;99.90
51500;DHT22;39101;53.478;6.158;2022-07-06T15:41:07;15.20;99.90
51500;DHT22;39101;53.478;6.158;2022-07-06T15:43:33;15.30;99.90
51500;DHT22;39101;53.478;6.158;2022-07-06T15:46:00;15.30;99.90